Time;durP1;ratioP1;P1;durP2;ratioP2;P2;SDS_P1;SDS_P2;PMS_P1;PMS_P2;Temp;Humidity;BMP_temperature;BMP_pressure;BME280_temperature;BME280_humidity;BME280_pressure;Samples;Min_cycle;Max_cycle;Signal;HPM_P1;HPM_P2
2023/07/27 00:01:07;;;;;;;10.88;6.60;;;;;;;;;;6184420;23;20075;-66
2023/07/27 00:03:33;;;;;;;11.23;5.68;;;;;;;;;;6184503;23;20384;-66
2023/07/27 00:05:59;;;;;;;9.60;6.10;;;;;;;;;;6211431;23;20078;-66
2023/07/27 00:08:25;;;;;;;9.90;5.70;;;;;;;;;;6211433;23;20440;-66
2023/07/27 00:10:51;;;;;;;11.48;6.40;;;;;;;;;;6212127;23;20062;-66
2023/07/27 00:13:18;;;;;;;11.32;6.50;;;;;;;;;;6211560;23;20012;-66
2023/07/27 00:15:44;;;;;;;9.90;6.32;;;;;;;;;;6211072;23;20361;-66
2023/07/27 00:18:10;;;;;;;12.25;6.13;;;;;;;;;;6211666;23;20019;-66
2023/07/27 00:20:36;;;;;;;9.77;6.03;;;;;;;;;;6211532;23;20017;-66
2023/07/27 00:23:02;;;;;;;11.23;6.47;;;;;;;;;;6211076;23;20398;-66
2023/07/27 00:25:28;;;;;;;12.93;6.75;;;;;;;;;;6211688;23;20059;-66
2023/07/27 00:27:54;;;;;;;9.25;6.20;;;;;;;;;;6184575;23;20439;-66
2023/07/27 00:30:20;;;;;;;10.48;5.88;;;;;;;;;;6210906;23;20095;-66
2023/07/27 00:32:46;;;;;;;8.00;5.95;;;;;;;;;;6211312;23;20482;-66
2023/07/27 00:35:12;;;;;;;8.30;5.50;;;;;;;;;;6211362;23;20040;-66
2023/07/27 00:37:38;;;;;;;11.57;5.82;;;;;;;;;;6210465;23;20102;-66
2023/07/27 00:40:04;;;;;;;10.02;5.65;;;;;;;;;;6211286;23;20458;-66
2023/07/27 00:42:30;;;;;;;9.93;5.75;;;;;;;;;;6210984;23;20016;-66
2023/07/27 00:44:56;;;;;;;7.63;4.82;;;;;;;;;;6210852;23;20012;-66
2023/07/27 00:47:22;;;;;;;9.15;5.60;;;;;;;;;;6211472;23;20432;-66
2023/07/27 00:49:48;;;;;;;7.72;5.43;;;;;;;;;;6211036;23;20321;-66
2023/07/27 00:52:15;;;;;;;10.88;5.85;;;;;;;;;;6211206;23;20040;-66
2023/07/27 00:54:41;;;;;;;9.80;5.80;;;;;;;;;;6210334;23;20020;-66
2023/07/27 00:57:07;;;;;;;7.63;4.80;;;;;;;;;;6210811;23;20150;-66
2023/07/27 00:59:33;;;;;;;7.03;4.65;;;;;;;;;;6210732;23;20009;-66
2023/07/27 01:01:59;;;;;;;11.50;5.80;;;;;;;;;;6210578;23;20016;-66
2023/07/27 01:04:26;;;;;;;11.35;5.30;;;;;;;;;;6211229;23;20044;-66
2023/07/27 01:06:52;;;;;;;8.07;4.80;;;;;;;;;;6211346;23;20016;-66
2023/07/27 01:09:18;;;;;;;8.30;5.25;;;;;;;;;;6210727;23;20016;-66
2023/07/27 01:11:49;;;;;;;8.02;5.00;;;;;;;;;;6211112;23;20092;-66
2023/07/27 01:14:18;;;;;;;8.63;5.38;;;;;;;;;;6209463;23;20440;-66
2023/07/27 01:16:52;;;;;;;8.30;4.90;;;;;;;;;;6210497;23;20066;-66
2023/07/27 01:19:18;;;;;;;9.18;4.72;;;;;;;;;;6210654;23;20055;-66
2023/07/27 01:21:46;;;;;;;7.70;4.88;;;;;;;;;;6210743;23;20012;-66
2023/07/27 01:24:19;;;;;;;8.98;4.95;;;;;;;;;;6210352;23;20012;-66
2023/07/27 01:27:03;;;;;;;8.65;5.10;;;;;;;;;;6210542;23;20020;-66
2023/07/27 01:29:39;;;;;;;7.85;5.28;;;;;;;;;;6183381;23;20028;-66
2023/07/27 01:32:05;;;;;;;6.78;4.65;;;;;;;;;;6210743;23;20012;-66
2023/07/27 01:34:33;;;;;;;8.15;5.28;;;;;;;;;;6210432;23;20017;-66
2023/07/27 01:37:03;;;;;;;8.18;4.82;;;;;;;;;;6209999;23;20440;-66
2023/07/27 01:39:31;;;;;;;8.13;5.38;;;;;;;;;;6210953;23;20542;-66
2023/07/27 01:41:57;;;;;;;8.68;4.97;;;;;;;;;;6210749;23;20071;-66
2023/07/27 01:44:24;;;;;;;7.32;5.18;;;;;;;;;;6210347;23;20009;-66
2023/07/27 01:46:52;;;;;;;8.52;5.18;;;;;;;;;;6210633;23;20017;-66
2023/07/27 01:49:19;;;;;;;8.73;5.15;;;;;;;;;;6210789;23;20581;-66
2023/07/27 01:51:45;;;;;;;9.52;4.78;;;;;;;;;;6210071;23;20071;-66
2023/07/27 01:54:12;;;;;;;8.82;4.80;;;;;;;;;;6183795;23;20320;-66
2023/07/27 01:56:38;;;;;;;8.35;5.05;;;;;;;;;;6210595;23;20059;-66
2023/07/27 01:59:06;;;;;;;6.75;4.85;;;;;;;;;;6210322;23;20012;-66
2023/07/27 02:01:32;;;;;;;9.65;5.43;;;;;;;;;;6210771;23;20023;-66
2023/07/27 02:03:58;;;;;;;8.15;4.88;;;;;;;;;;6211150;23;20071;-66
2023/07/27 02:06:24;;;;;;;9.32;5.32;;;;;;;;;;6209868;23;20066;-66
2023/07/27 02:08:50;;;;;;;9.30;4.90;;;;;;;;;;6210580;23;20020;-66
2023/07/27 02:11:17;;;;;;;7.22;4.90;;;;;;;;;;6210710;23;20016;-66
2023/07/27 02:14:02;;;;;;;7.60;4.72;;;;;;;;;;6210475;23;20040;-66
2023/07/27 02:16:37;;;;;;;7.78;5.30;;;;;;;;;;6210977;23;20020;-66
2023/07/27 02:19:04;;;;;;;9.70;5.03;;;;;;;;;;6210721;23;20043;-66
2023/07/27 02:21:31;;;;;;;6.90;4.60;;;;;;;;;;6210289;23;20044;-66
2023/07/27 02:23:58;;;;;;;8.20;5.47;;;;;;;;;;6210676;23;20012;-66
2023/07/27 02:26:24;;;;;;;10.30;5.22;;;;;;;;;;6210603;23;20332;-66
2023/07/27 02:28:50;;;;;;;10.13;5.65;;;;;;;;;;6211874;23;20022;-66
2023/07/27 02:31:16;;;;;;;10.32;5.47;;;;;;;;;;6212288;23;20067;-66
2023/07/27 02:33:42;;;;;;;8.07;5.30;;;;;;;;;;6212581;23;20025;-66
2023/07/27 02:36:08;;;;;;;8.68;5.40;;;;;;;;;;6211805;23;20471;-66
2023/07/27 02:38:34;;;;;;;9.23;5.43;;;;;;;;;;6212498;23;20024;-66
2023/07/27 02:41:00;;;;;;;9.75;5.20;;;;;;;;;;6212543;23;20074;-66
2023/07/27 02:43:26;;;;;;;11.30;6.00;;;;;;;;;;6185724;23;20471;-66
2023/07/27 02:45:57;;;;;;;11.40;6.00;;;;;;;;;;6212145;23;20062;-66
2023/07/27 02:48:23;;;;;;;8.40;5.35;;;;;;;;;;6212637;23;20009;-66
2023/07/27 02:50:50;;;;;;;9.07;5.90;;;;;;;;;;6211706;23;20401;-66
2023/07/27 02:53:16;;;;;;;8.85;5.25;;;;;;;;;;6212489;23;20096;-66
2023/07/27 02:55:42;;;;;;;9.38;5.85;;;;;;;;;;6185812;23;20031;-66
2023/07/27 02:58:08;;;;;;;9.30;5.97;;;;;;;;;;6212089;23;20012;-66
2023/07/27 03:00:34;;;;;;;10.43;5.63;;;;;;;;;;6212213;23;20013;-66
2023/07/27 03:03:00;;;;;;;9.18;6.05;;;;;;;;;;6212315;23;20479;-66
2023/07/27 03:05:27;;;;;;;10.10;6.32;;;;;;;;;;6212300;23;20021;-66
2023/07/27 03:07:53;;;;;;;10.90;5.70;;;;;;;;;;6211519;23;20281;-66
2023/07/27 03:10:19;;;;;;;11.60;7.20;;;;;;;;;;6212298;23;20317;-66
2023/07/27 03:12:45;;;;;;;8.82;5.88;;;;;;;;;;6212373;23;20016;-66
2023/07/27 03:15:11;;;;;;;9.35;6.25;;;;;;;;;;6211685;23;20432;-66
2023/07/27 03:17:37;;;;;;;8.55;5.97;;;;;;;;;;6211784;23;20349;-66
2023/07/27 03:20:04;;;;;;;12.95;6.55;;;;;;;;;;6212012;23;20020;-66
2023/07/27 03:22:30;;;;;;;10.50;6.63;;;;;;;;;;6211735;23;20016;-66
2023/07/27 03:24:56;;;;;;;12.55;6.53;;;;;;;;;;6211976;23;20023;-66
2023/07/27 03:27:22;;;;;;;11.45;6.25;;;;;;;;;;6212532;23;20087;-66
2023/07/27 03:29:48;;;;;;;10.65;6.40;;;;;;;;;;6211269;23;20023;-66
2023/07/27 03:32:14;;;;;;;8.80;6.25;;;;;;;;;;6212001;23;20013;-66
2023/07/27 03:34:40;;;;;;;10.75;6.50;;;;;;;;;;6211952;23;20024;-66
2023/07/27 03:37:06;;;;;;;11.93;6.07;;;;;;;;;;6211095;23;20385;-66
2023/07/27 03:39:32;;;;;;;11.27;6.45;;;;;;;;;;6211805;23;20024;-66
2023/07/27 03:41:58;;;;;;;9.63;6.07;;;;;;;;;;6211513;23;20047;-66
2023/07/27 03:44:25;;;;;;;9.40;6.25;;;;;;;;;;6211429;23;20012;-66
2023/07/27 03:46:50;;;;;;;11.00;7.30;;;;;;;;;;6211837;23;20083;-66
2023/07/27 03:49:16;;;;;;;10.27;6.82;;;;;;;;;;6212041;23;20483;-66
2023/07/27 03:51:42;;;;;;;10.68;6.57;;;;;;;;;;6211593;23;20335;-66
2023/07/27 03:54:08;;;;;;;9.55;6.53;;;;;;;;;;6211805;23;20353;-66
2023/07/27 03:56:34;;;;;;;9.75;6.90;;;;;;;;;;6211715;23;20202;-66
2023/07/27 03:59:00;;;;;;;10.20;7.00;;;;;;;;;;6211277;23;20096;-66
2023/07/27 04:01:26;;;;;;;10.13;7.00;;;;;;;;;;6211501;23;20020;-66
2023/07/27 04:03:52;;;;;;;10.07;7.47;;;;;;;;;;6211737;23;20012;-66
2023/07/27 04:06:18;;;;;;;11.93;7.13;;;;;;;;;;6211171;23;20075;-66
2023/07/27 04:08:44;;;;;;;12.40;7.70;;;;;;;;;;6211718;23;20482;-66
2023/07/27 04:11:10;;;;;;;12.82;8.48;;;;;;;;;;6211742;23;20012;-66
2023/07/27 04:13:38;;;;;;;12.88;7.53;;;;;;;;;;6209605;23;20366;-66
2023/07/27 04:16:05;;;;;;;11.88;7.65;;;;;;;;;;6211421;23;20068;-66
2023/07/27 04:18:30;;;;;;;11.48;7.40;;;;;;;;;;6211637;23;20376;-66
2023/07/27 04:20:57;;;;;;;10.35;7.13;;;;;;;;;;6210822;23;20020;-66
2023/07/27 04:23:22;;;;;;;13.52;7.75;;;;;;;;;;6211484;23;20442;-66
2023/07/27 04:25:48;;;;;;;13.95;7.53;;;;;;;;;;6211818;23;20013;-66
2023/07/27 04:28:14;;;;;;;12.63;7.03;;;;;;;;;;6211329;23;20304;-66
2023/07/27 04:30:42;;;;;;;13.43;7.40;;;;;;;;;;6211312;23;20016;-66
2023/07/27 04:33:08;;;;;;;8.77;6.93;;;;;;;;;;6212691;23;20531;-66
2023/07/27 04:35:33;;;;;;;10.85;7.50;;;;;;;;;;6212641;23;20092;-66
2023/07/27 04:37:59;;;;;;;11.18;7.45;;;;;;;;;;6185751;23;20177;-66
2023/07/27 04:40:25;;;;;;;14.88;8.75;;;;;;;;;;6212809;23;20012;-66
2023/07/27 04:42:51;;;;;;;11.25;7.05;;;;;;;;;;6212159;23;20032;-66
2023/07/27 04:45:18;;;;;;;12.20;7.80;;;;;;;;;;6212509;23;20012;-66
2023/07/27 04:47:43;;;;;;;12.13;8.10;;;;;;;;;;6213056;23;20439;-66
2023/07/27 04:50:10;;;;;;;8.93;6.85;;;;;;;;;;6212490;23;20028;-66
2023/07/27 04:52:36;;;;;;;11.88;7.57;;;;;;;;;;6213183;23;20021;-66
2023/07/27 04:55:02;;;;;;;10.38;7.43;;;;;;;;;;6212899;23;20017;-66
2023/07/27 04:57:28;;;;;;;11.35;7.40;;;;;;;;;;6212555;23;20016;-66
2023/07/27 04:59:54;;;;;;;10.90;7.57;;;;;;;;;;6212262;23;20459;-66
2023/07/27 05:02:20;;;;;;;12.65;7.63;;;;;;;;;;6212569;23;20012;-66
2023/07/27 05:04:46;;;;;;;10.68;6.95;;;;;;;;;;6213006;23;20505;-66
2023/07/27 05:07:12;;;;;;;9.48;7.18;;;;;;;;;;6213348;23;20013;-66
2023/07/27 05:09:38;;;;;;;12.30;7.75;;;;;;;;;;6213555;23;20044;-67
2023/07/27 05:12:04;;;;;;;11.07;7.50;;;;;;;;;;6185931;23;20455;-67
2023/07/27 05:14:30;;;;;;;11.55;7.13;;;;;;;;;;6213548;23;20087;-66
2023/07/27 05:16:56;;;;;;;9.23;6.45;;;;;;;;;;6213536;23;20603;-66
2023/07/27 05:19:22;;;;;;;9.90;6.90;;;;;;;;;;6212806;23;20220;-66
2023/07/27 05:21:48;;;;;;;8.65;6.10;;;;;;;;;;6212848;23;20012;-66
2023/07/27 05:24:14;;;;;;;10.48;6.90;;;;;;;;;;6213221;23;20015;-66
2023/07/27 05:26:40;;;;;;;8.77;6.28;;;;;;;;;;6212698;23;20016;-66
2023/07/27 05:29:06;;;;;;;10.52;6.70;;;;;;;;;;6213189;23;20056;-66
2023/07/27 05:31:32;;;;;;;8.05;5.90;;;;;;;;;;6213139;23;20312;-66
2023/07/27 05:33:58;;;;;;;9.73;6.40;;;;;;;;;;6212577;23;20013;-66
2023/07/27 05:36:24;;;;;;;10.20;6.30;;;;;;;;;;6212670;23;20059;-66
2023/07/27 05:38:50;;;;;;;7.70;6.00;;;;;;;;;;6212642;23;20020;-66
2023/07/27 05:41:16;;;;;;;10.00;5.47;;;;;;;;;;6212535;23;20020;-66
2023/07/27 05:43:42;;;;;;;9.43;6.03;;;;;;;;;;6213085;23;20024;-66
2023/07/27 05:46:08;;;;;;;9.68;5.72;;;;;;;;;;6212891;23;20009;-66
2023/07/27 05:48:34;;;;;;;8.57;5.43;;;;;;;;;;6209595;23;20048;-67
2023/07/27 05:51:00;;;;;;;8.73;5.95;;;;;;;;;;6184130;23;20067;-67
2023/07/27 05:53:26;;;;;;;7.75;5.28;;;;;;;;;;6211759;23;20079;-66
2023/07/27 05:55:52;;;;;;;9.23;5.70;;;;;;;;;;6211758;23;20021;-68
2023/07/27 05:58:18;;;;;;;10.82;5.70;;;;;;;;;;6211840;23;20016;-68
2023/07/27 06:00:45;;;;;;;9.20;6.00;;;;;;;;;;6211216;23;20048;-67
2023/07/27 06:03:11;;;;;;;8.18;5.82;;;;;;;;;;6212105;23;20051;-66
2023/07/27 06:05:42;;;;;;;9.52;6.05;;;;;;;;;;6212124;23;20336;-68
2023/07/27 06:08:08;;;;;;;8.50;5.60;;;;;;;;;;6212659;23;20067;-68
2023/07/27 06:10:34;;;;;;;9.18;6.20;;;;;;;;;;6184169;23;20416;-68
2023/07/27 06:13:00;;;;;;;8.77;5.93;;;;;;;;;;6211833;23;20025;-65
2023/07/27 06:15:26;;;;;;;9.45;6.88;;;;;;;;;;6212329;23;20017;-65
2023/07/27 06:17:52;;;;;;;8.18;5.80;;;;;;;;;;6211684;23;20371;-66
2023/07/27 06:20:18;;;;;;;11.60;8.02;;;;;;;;;;6211327;23;20017;-67
2023/07/27 06:22:45;;;;;;;12.52;8.00;;;;;;;;;;6211216;23;20100;-66
2023/07/27 06:25:11;;;;;;;11.10;7.40;;;;;;;;;;6211540;23;20016;-67
2023/07/27 06:27:37;;;;;;;10.55;6.93;;;;;;;;;;6210514;23;20015;-68
2023/07/27 06:30:03;;;;;;;9.73;6.78;;;;;;;;;;6210450;23;20020;-67
2023/07/27 06:32:29;;;;;;;9.52;7.20;;;;;;;;;;6212264;23;20098;-68
2023/07/27 06:34:55;;;;;;;8.93;7.10;;;;;;;;;;6211458;23;20016;-67
2023/07/27 06:37:21;;;;;;;10.98;7.30;;;;;;;;;;6211686;23;20079;-67
2023/07/27 06:39:48;;;;;;;9.90;7.63;;;;;;;;;;6210622;23;20035;-68
2023/07/27 06:42:14;;;;;;;11.55;8.15;;;;;;;;;;6210941;23;20012;-67
2023/07/27 06:44:40;;;;;;;11.25;7.90;;;;;;;;;;6212073;23;20012;-68
2023/07/27 06:47:06;;;;;;;11.65;7.97;;;;;;;;;;6211901;23;20201;-68
2023/07/27 06:49:32;;;;;;;9.63;7.10;;;;;;;;;;6211597;23;20087;-68
2023/07/27 06:51:58;;;;;;;9.48;7.13;;;;;;;;;;6212417;23;20024;-68
2023/07/27 06:54:24;;;;;;;13.25;7.95;;;;;;;;;;6211454;23;20020;-67
2023/07/27 06:56:50;;;;;;;10.43;7.57;;;;;;;;;;6211799;23;20023;-67
2023/07/27 06:59:16;;;;;;;12.18;8.40;;;;;;;;;;6211500;23;20495;-67
2023/07/27 07:01:42;;;;;;;10.55;8.38;;;;;;;;;;6212306;23;20600;-67
2023/07/27 07:04:08;;;;;;;14.10;9.70;;;;;;;;;;6184503;23;20421;-67
2023/07/27 07:06:34;;;;;;;11.10;8.52;;;;;;;;;;6210012;23;20012;-68
2023/07/27 07:09:00;;;;;;;12.52;8.30;;;;;;;;;;6211759;23;20059;-68
2023/07/27 07:11:26;;;;;;;10.32;8.35;;;;;;;;;;6211304;23;20027;-67
2023/07/27 07:13:52;;;;;;;13.68;8.43;;;;;;;;;;6211213;23;20021;-66
2023/07/27 07:16:18;;;;;;;11.10;8.15;;;;;;;;;;6212317;23;20048;-66
2023/07/27 07:18:45;;;;;;;12.95;8.38;;;;;;;;;;6211709;23;20042;-66
2023/07/27 07:21:11;;;;;;;11.43;7.80;;;;;;;;;;6211528;23;20080;-66
2023/07/27 07:23:37;;;;;;;10.98;7.70;;;;;;;;;;6212970;23;20013;-66
2023/07/27 07:26:03;;;;;;;11.00;8.02;;;;;;;;;;6210797;23;20094;-66
2023/07/27 07:28:29;;;;;;;10.15;7.45;;;;;;;;;;6212202;23;20340;-66
2023/07/27 07:30:55;;;;;;;9.55;7.88;;;;;;;;;;6210858;23;20062;-66
2023/07/27 07:33:21;;;;;;;9.18;7.40;;;;;;;;;;6211462;23;20458;-66
2023/07/27 07:35:47;;;;;;;9.63;7.75;;;;;;;;;;6212363;23;20016;-66
2023/07/27 07:38:13;;;;;;;10.93;7.93;;;;;;;;;;6212086;23;20025;-66
2023/07/27 07:40:39;;;;;;;9.98;7.30;;;;;;;;;;6210700;23;20055;-67
2023/07/27 07:43:06;;;;;;;7.60;6.80;;;;;;;;;;6210670;23;20339;-68
2023/07/27 07:45:34;;;;;;;11.77;7.88;;;;;;;;;;6210542;23;20104;-66
2023/07/27 07:48:00;;;;;;;12.15;7.70;;;;;;;;;;6211590;23;20027;-65
2023/07/27 07:50:26;;;;;;;8.80;6.85;;;;;;;;;;6211776;23;20025;-66
2023/07/27 07:52:52;;;;;;;9.30;6.70;;;;;;;;;;6211419;23;20013;-66
2023/07/27 07:55:18;;;;;;;8.23;6.93;;;;;;;;;;6211601;23;20023;-66
2023/07/27 07:57:44;;;;;;;8.13;6.65;;;;;;;;;;6212545;23;20022;-66
2023/07/27 08:00:10;;;;;;;9.40;6.30;;;;;;;;;;6211058;23;20119;-66
2023/07/27 08:02:38;;;;;;;8.95;6.15;;;;;;;;;;6210633;23;20059;-66
2023/07/27 08:05:04;;;;;;;7.72;5.90;;;;;;;;;;6211348;23;20016;-66
2023/07/27 08:07:30;;;;;;;7.95;5.93;;;;;;;;;;6211906;23;20020;-67
2023/07/27 08:09:57;;;;;;;8.18;5.85;;;;;;;;;;6210941;23;20016;-67
2023/07/27 08:12:23;;;;;;;6.53;5.10;;;;;;;;;;6211131;23;20025;-68
2023/07/27 08:14:49;;;;;;;6.10;4.97;;;;;;;;;;6208560;23;20431;-68
2023/07/27 08:17:15;;;;;;;5.57;4.72;;;;;;;;;;6211510;23;20020;-68
2023/07/27 08:19:41;;;;;;;6.25;4.40;;;;;;;;;;6211123;23;20017;-68
2023/07/27 08:22:07;;;;;;;6.35;4.75;;;;;;;;;;6210870;23;20020;-68
2023/07/27 08:24:33;;;;;;;4.85;4.07;;;;;;;;;;6211217;23;20009;-68
2023/07/27 08:26:59;;;;;;;5.70;4.07;;;;;;;;;;6211230;23;20053;-68
2023/07/27 08:29:25;;;;;;;5.38;4.38;;;;;;;;;;6211531;23;20020;-68
2023/07/27 08:31:52;;;;;;;5.35;4.85;;;;;;;;;;6210835;23;20340;-68
2023/07/27 08:34:18;;;;;;;4.32;3.88;;;;;;;;;;6210386;23;20023;-68
2023/07/27 08:36:47;;;;;;;7.15;4.40;;;;;;;;;;6210475;23;20016;-68
2023/07/27 08:39:13;;;;;;;4.75;4.00;;;;;;;;;;6210081;23;20032;-68
2023/07/27 08:41:39;;;;;;;6.22;4.20;;;;;;;;;;6211806;23;20601;-66
2023/07/27 08:44:06;;;;;;;7.13;4.43;;;;;;;;;;6210527;23;20436;-65
2023/07/27 08:46:32;;;;;;;4.35;3.63;;;;;;;;;;6210541;23;20023;-65
2023/07/27 08:48:59;;;;;;;5.75;4.13;;;;;;;;;;6210502;23;20019;-68
2023/07/27 08:51:25;;;;;;;5.25;3.95;;;;;;;;;;6208109;23;20023;-68
2023/07/27 08:53:51;;;;;;;4.55;4.13;;;;;;;;;;6181495;23;20451;-68
2023/07/27 08:56:17;;;;;;;4.80;4.30;;;;;;;;;;6211860;23;20012;-68
2023/07/27 08:58:43;;;;;;;4.70;4.20;;;;;;;;;;6211490;23;20017;-67
2023/07/27 09:01:09;;;;;;;5.07;4.57;;;;;;;;;;6211000;23;20027;-67
2023/07/27 09:03:36;;;;;;;4.22;3.83;;;;;;;;;;6211355;23;20023;-65
2023/07/27 09:06:03;;;;;;;4.90;4.18;;;;;;;;;;6211819;23;20441;-66
2023/07/27 09:08:30;;;;;;;4.45;4.03;;;;;;;;;;6211547;23;20027;-67
2023/07/27 09:11:04;;;;;;;4.20;3.80;;;;;;;;;;6211606;23;20087;-65
2023/07/27 09:13:31;;;;;;;4.30;3.90;;;;;;;;;;6210378;23;20087;-66
2023/07/27 09:15:57;;;;;;;4.55;4.15;;;;;;;;;;6211571;23;20087;-66
2023/07/27 09:18:23;;;;;;;5.00;4.50;;;;;;;;;;6210686;23;20020;-65
2023/07/27 09:20:49;;;;;;;4.47;3.92;;;;;;;;;;6211497;23;20051;-66
2023/07/27 09:23:19;;;;;;;5.28;4.78;;;;;;;;;;6211712;23;20013;-66
2023/07/27 09:25:55;;;;;;;3.88;3.58;;;;;;;;;;6209745;23;20019;-66
2023/07/27 09:28:25;;;;;;;4.57;4.18;;;;;;;;;;6211436;23;20048;-66
2023/07/27 09:30:51;;;;;;;4.05;3.65;;;;;;;;;;6210867;23;20028;-65
2023/07/27 09:33:22;;;;;;;4.47;4.07;;;;;;;;;;6210888;23;20021;-65
2023/07/27 09:35:51;;;;;;;4.18;3.78;;;;;;;;;;6209660;23;20078;-67
2023/07/27 09:38:23;;;;;;;4.15;3.75;;;;;;;;;;6210749;23;20020;-66
2023/07/27 09:40:50;;;;;;;4.53;3.97;;;;;;;;;;6210525;23;20056;-66
2023/07/27 09:43:16;;;;;;;5.15;3.85;;;;;;;;;;6210027;23;20087;-66
2023/07/27 09:45:42;;;;;;;3.85;3.55;;;;;;;;;;6209670;23;20040;-66
2023/07/27 09:48:08;;;;;;;4.22;3.72;;;;;;;;;;6184582;23;20013;-66
2023/07/27 09:50:34;;;;;;;4.00;3.60;;;;;;;;;;6211299;23;20008;-65
2023/07/27 09:53:02;;;;;;;3.97;3.58;;;;;;;;;;6210803;23;20104;-66
2023/07/27 09:55:31;;;;;;;3.63;3.08;;;;;;;;;;6211425;23;20016;-66
2023/07/27 09:57:58;;;;;;;3.80;3.50;;;;;;;;;;6211615;23;20012;-66
2023/07/27 10:00:25;;;;;;;3.50;3.20;;;;;;;;;;6210947;23;20424;-67
2023/07/27 10:02:51;;;;;;;3.45;3.15;;;;;;;;;;6211133;23;20328;-66
2023/07/27 10:05:17;;;;;;;4.20;3.80;;;;;;;;;;6210388;23;20019;-67
2023/07/27 10:07:43;;;;;;;4.05;3.72;;;;;;;;;;6210378;23;20495;-67
2023/07/27 10:10:26;;;;;;;4.03;3.72;;;;;;;;;;6210977;23;20017;-66
2023/07/27 10:12:55;;;;;;;4.28;3.00;;;;;;;;;;6184472;23;20470;-67
2023/07/27 10:15:24;;;;;;;4.22;3.83;;;;;;;;;;6210729;23;20515;-67
2023/07/27 10:17:51;;;;;;;3.92;3.63;;;;;;;;;;6211328;23;20025;-66
2023/07/27 10:20:21;;;;;;;4.93;4.47;;;;;;;;;;6211265;23;20091;-65
2023/07/27 10:22:50;;;;;;;3.70;3.25;;;;;;;;;;6210601;23;20088;-66
2023/07/27 10:25:16;;;;;;;4.68;4.28;;;;;;;;;;6210442;23;20023;-67
2023/07/27 10:27:58;;;;;;;4.30;3.85;;;;;;;;;;6211293;23;20016;-66
2023/07/27 10:30:24;;;;;;;4.18;3.78;;;;;;;;;;6210178;23;20017;-66
2023/07/27 10:33:08;;;;;;;3.90;3.60;;;;;;;;;;6210505;23;20051;-66
2023/07/27 10:35:55;;;;;;;4.43;3.70;;;;;;;;;;6211005;23;20017;-66
2023/07/27 10:38:21;;;;;;;4.28;3.92;;;;;;;;;;6189849;23;20023;-66
2023/07/27 10:40:47;;;;;;;4.38;3.83;;;;;;;;;;6211000;23;20095;-66
2023/07/27 10:43:13;;;;;;;4.22;3.80;;;;;;;;;;6211297;23;20017;-66
2023/07/27 10:45:39;;;;;;;4.53;3.53;;;;;;;;;;6210682;23;20040;-66
2023/07/27 10:48:05;;;;;;;4.00;3.70;;;;;;;;;;6211678;23;20017;-66
2023/07/27 10:50:31;;;;;;;4.50;3.58;;;;;;;;;;6213280;23;20017;-66
2023/07/27 10:52:57;;;;;;;4.22;3.50;;;;;;;;;;6210614;23;20059;-67
2023/07/27 10:55:23;;;;;;;4.20;3.90;;;;;;;;;;6213297;23;20020;-66
2023/07/27 10:57:52;;;;;;;4.93;4.40;;;;;;;;;;6213117;23;20040;-66
2023/07/27 11:00:18;;;;;;;5.30;4.80;;;;;;;;;;6212693;23;20055;-66
2023/07/27 11:02:44;;;;;;;6.10;5.13;;;;;;;;;;6212282;23;20013;-67
2023/07/27 11:05:12;;;;;;;5.35;4.70;;;;;;;;;;6211960;23;20017;-66
2023/07/27 11:07:39;;;;;;;4.93;4.53;;;;;;;;;;6184813;23;20021;-66
2023/07/27 11:10:06;;;;;;;5.63;4.57;;;;;;;;;;6212514;23;20074;-69
2023/07/27 11:12:32;;;;;;;6.85;5.25;;;;;;;;;;6185657;23;20577;-68
2023/07/27 11:15:17;;;;;;;5.53;5.03;;;;;;;;;;6212736;23;20012;-67
2023/07/27 11:17:43;;;;;;;5.72;5.22;;;;;;;;;;6212673;23;20438;-67
2023/07/27 11:20:10;;;;;;;6.05;5.07;;;;;;;;;;6213002;23;20086;-68
2023/07/27 11:22:36;;;;;;;6.03;5.43;;;;;;;;;;6212542;23;20035;-67
2023/07/27 11:25:06;;;;;;;6.28;5.53;;;;;;;;;;6212746;23;20406;-67
2023/07/27 11:27:32;;;;;;;5.30;4.90;;;;;;;;;;6210705;23;20110;-68
2023/07/27 11:30:01;;;;;;;5.40;4.90;;;;;;;;;;6210029;23;20016;-68
2023/07/27 11:32:27;;;;;;;5.63;5.13;;;;;;;;;;6211913;23;20035;-67
2023/07/27 11:34:57;;;;;;;5.35;4.47;;;;;;;;;;6212042;23;20631;-66
2023/07/27 11:37:27;;;;;;;5.22;4.82;;;;;;;;;;6154726;23;20194;-66
2023/07/27 11:39:53;;;;;;;6.68;5.28;;;;;;;;;;6151371;23;20025;-68
2023/07/27 11:42:36;;;;;;;5.13;4.72;;;;;;;;;;6152551;23;20009;-67
2023/07/27 11:45:02;;;;;;;5.70;5.13;;;;;;;;;;6151480;23;20580;-67
2023/07/27 11:47:35;;;;;;;4.80;4.32;;;;;;;;;;6152796;23;20585;-66
2023/07/27 11:50:02;;;;;;;4.63;4.22;;;;;;;;;;6151555;23;20013;-65
2023/07/27 11:52:28;;;;;;;5.18;3.83;;;;;;;;;;6151791;23;20021;-66
2023/07/27 11:54:55;;;;;;;5.10;4.65;;;;;;;;;;6151834;23;20018;-67
2023/07/27 11:57:27;;;;;;;6.80;4.97;;;;;;;;;;6151950;23;20071;-67
2023/07/27 12:00:23;;;;;;;4.30;3.92;;;;;;;;;;6124778;23;20333;-66
2023/07/27 12:02:50;;;;;;;4.85;4.45;;;;;;;;;;6132588;23;20014;-67
2023/07/27 12:05:17;;;;;;;4.88;4.47;;;;;;;;;;6152231;23;20135;-67
2023/07/27 12:07:43;;;;;;;4.45;4.05;;;;;;;;;;6151542;23;20524;-67
2023/07/27 12:10:13;;;;;;;3.95;3.65;;;;;;;;;;6151952;23;20025;-67
2023/07/27 12:12:54;;;;;;;5.07;3.83;;;;;;;;;;6152609;23;20049;-67
2023/07/27 12:15:24;;;;;;;3.88;3.58;;;;;;;;;;6152225;23;20088;-67
2023/07/27 12:17:57;;;;;;;3.42;3.13;;;;;;;;;;6152446;23;20380;-67
2023/07/27 12:20:23;;;;;;;4.32;3.92;;;;;;;;;;6152145;23;20088;-66
2023/07/27 12:22:49;;;;;;;3.90;3.60;;;;;;;;;;6151664;23;20024;-65
2023/07/27 12:25:15;;;;;;;4.20;3.80;;;;;;;;;;6152378;23;20333;-66
2023/07/27 12:27:41;;;;;;;3.58;3.28;;;;;;;;;;6151910;23;20047;-66
2023/07/27 12:30:09;;;;;;;4.65;3.92;;;;;;;;;;6151241;23;20092;-66
2023/07/27 12:32:35;;;;;;;4.15;3.65;;;;;;;;;;6151582;23;20072;-67
2023/07/27 12:35:05;;;;;;;3.42;3.13;;;;;;;;;;6152037;23;20056;-66
2023/07/27 12:37:31;;;;;;;5.25;3.63;;;;;;;;;;6205069;23;20127;-66
2023/07/27 12:39:57;;;;;;;3.80;3.42;;;;;;;;;;6211442;23;20013;-66
2023/07/27 12:42:24;;;;;;;4.95;4.45;;;;;;;;;;6211046;23;20091;-66
2023/07/27 12:44:50;;;;;;;4.60;3.85;;;;;;;;;;6210813;23;20555;-66
2023/07/27 12:47:16;;;;;;;5.38;4.40;;;;;;;;;;6211997;23;20013;-67
2023/07/27 12:49:42;;;;;;;4.30;3.95;;;;;;;;;;6212546;23;20021;-67
2023/07/27 12:52:08;;;;;;;5.07;4.20;;;;;;;;;;6185461;23;20025;-67
2023/07/27 12:54:34;;;;;;;5.32;4.32;;;;;;;;;;6212679;23;20048;-66
2023/07/27 12:57:00;;;;;;;5.30;4.80;;;;;;;;;;6213002;23;20016;-66
2023/07/27 12:59:26;;;;;;;5.28;4.78;;;;;;;;;;6212067;23;20021;-66
2023/07/27 13:01:53;;;;;;;4.85;4.35;;;;;;;;;;6212910;23;20467;-66
2023/07/27 13:04:19;;;;;;;6.95;3.83;;;;;;;;;;6185864;23;20058;-67
2023/07/27 13:06:45;;;;;;;4.20;3.88;;;;;;;;;;6212452;23;20095;-67
2023/07/27 13:09:11;;;;;;;5.28;3.45;;;;;;;;;;6212947;23;20020;-67
2023/07/27 13:11:37;;;;;;;3.92;3.63;;;;;;;;;;6212131;23;20505;-68
2023/07/27 13:14:04;;;;;;;4.90;3.70;;;;;;;;;;6212247;23;20023;-67
2023/07/27 13:16:30;;;;;;;3.13;2.83;;;;;;;;;;6213059;23;20031;-67
2023/07/27 13:18:56;;;;;;;3.10;2.80;;;;;;;;;;6212550;23;20019;-68
2023/07/27 13:21:22;;;;;;;3.22;2.92;;;;;;;;;;6212918;23;20008;-67
2023/07/27 13:23:48;;;;;;;3.17;2.40;;;;;;;;;;6212910;23;20036;-67
2023/07/27 13:26:14;;;;;;;2.65;2.08;;;;;;;;;;6212746;23;20012;-68
2023/07/27 13:28:40;;;;;;;1.75;1.50;;;;;;;;;;6211851;23;20016;-68
2023/07/27 13:31:06;;;;;;;1.60;1.50;;;;;;;;;;6212736;23;20016;-68
2023/07/27 13:33:32;;;;;;;3.58;1.65;;;;;;;;;;6212803;23;20096;-68
2023/07/27 13:35:58;;;;;;;1.80;1.65;;;;;;;;;;6212046;23;20017;-68
2023/07/27 13:38:24;;;;;;;2.55;2.10;;;;;;;;;;6212507;23;20035;-67
2023/07/27 13:40:50;;;;;;;2.22;2.00;;;;;;;;;;6211762;23;20016;-67
2023/07/27 13:43:16;;;;;;;1.98;1.70;;;;;;;;;;6209811;23;20423;-67
2023/07/27 13:45:42;;;;;;;1.95;1.17;;;;;;;;;;6184881;23;20013;-67
2023/07/27 13:48:08;;;;;;;1.85;1.20;;;;;;;;;;6211350;23;20066;-67
2023/07/27 13:50:35;;;;;;;2.67;1.30;;;;;;;;;;6184175;23;20146;-67
2023/07/27 13:53:01;;;;;;;1.67;0.90;;;;;;;;;;6184777;23;20747;-66
2023/07/27 13:55:27;;;;;;;1.10;1.00;;;;;;;;;;6211846;23;20064;-66
2023/07/27 13:57:53;;;;;;;1.45;1.20;;;;;;;;;;6211475;23;20020;-67
2023/07/27 14:00:20;;;;;;;1.42;0.98;;;;;;;;;;6209992;23;20013;-67
2023/07/27 14:02:46;;;;;;;1.33;0.90;;;;;;;;;;6184986;23;20339;-67
2023/07/27 14:05:13;;;;;;;1.27;0.80;;;;;;;;;;6185078;23;20024;-67
2023/07/27 14:07:39;;;;;;;1.50;0.50;;;;;;;;;;6212300;23;20360;-67
2023/07/27 14:10:06;;;;;;;0.60;0.60;;;;;;;;;;6212172;23;20066;-66
2023/07/27 14:12:32;;;;;;;0.85;0.70;;;;;;;;;;6211341;23;20016;-66
2023/07/27 14:14:58;;;;;;;0.63;0.60;;;;;;;;;;6212226;23;20024;-66
2023/07/27 14:17:24;;;;;;;0.80;0.70;;;;;;;;;;6212278;23;20095;-66
2023/07/27 14:19:50;;;;;;;0.93;0.82;;;;;;;;;;6211443;23;20023;-66
2023/07/27 14:22:16;;;;;;;2.05;0.80;;;;;;;;;;6212213;23;20088;-67
2023/07/27 14:24:42;;;;;;;2.45;1.60;;;;;;;;;;6214307;23;20020;-67
2023/07/27 14:27:08;;;;;;;1.02;0.90;;;;;;;;;;6213659;23;20036;-68
2023/07/27 14:29:34;;;;;;;1.40;0.90;;;;;;;;;;6213787;23;20016;-67
2023/07/27 14:32:00;;;;;;;2.97;1.20;;;;;;;;;;6213874;23;20024;-67
2023/07/27 14:34:27;;;;;;;1.48;1.30;;;;;;;;;;6213686;23;20016;-65
2023/07/27 14:36:53;;;;;;;1.20;1.00;;;;;;;;;;6213898;23;20031;-65
2023/07/27 14:39:19;;;;;;;1.50;1.27;;;;;;;;;;6213665;23;20021;-66